Time;durP1;ratioP1;P1;durP2;ratioP2;P2;SDS_P1;SDS_P2;PMS_P1;PMS_P2;Temp;Humidity;BMP_temperature;BMP_pressure;BME280_temperature;BME280_humidity;BME280_pressure;Samples;Min_cycle;Max_cycle;Signal;HPM_P1;HPM_P2
2023/10/14 00:04:58;;;;;;;5.82;1.77;;;;;;;;;;10359543;28;20041;-69
2023/10/14 00:10:03;;;;;;;8.05;2.75;;;;;;;;;;10356164;28;20049;-73
2023/10/14 00:15:08;;;;;;;7.88;2.30;;;;;;;;;;10356739;28;20045;-70
2023/10/14 00:20:11;;;;;;;6.05;2.42;;;;;;;;;;10350695;28;20103;-71
2023/10/14 00:25:19;;;;;;;2.97;1.83;;;;;;;;;;10361905;28;20133;-75
2023/10/14 00:30:27;;;;;;;7.60;2.95;;;;;;;;;;10359852;28;20046;-73
2023/10/14 00:35:30;;;;;;;10.30;3.08;;;;;;;;;;10359772;28;20073;-71
2023/10/14 00:40:34;;;;;;;5.77;2.03;;;;;;;;;;10356885;28;20064;-71
2023/10/14 00:45:43;;;;;;;6.85;2.70;;;;;;;;;;10352848;28;20080;-70
2023/10/14 00:50:46;;;;;;;7.57;2.25;;;;;;;;;;10357454;28;20037;-71
2023/10/14 00:55:54;;;;;;;6.93;2.80;;;;;;;;;;10353731;28;20446;-71
2023/10/14 01:00:58;;;;;;;7.30;2.97;;;;;;;;;;10358508;28;20128;-72
2023/10/14 01:06:15;;;;;;;6.38;2.47;;;;;;;;;;10357205;28;20585;-71
2023/10/14 01:11:17;;;;;;;8.52;2.83;;;;;;;;;;10354276;28;20034;-72
2023/10/14 01:16:24;;;;;;;6.73;3.10;;;;;;;;;;10352624;28;20099;-71
2023/10/14 01:21:28;;;;;;;8.43;2.65;;;;;;;;;;10357730;28;20041;-72
2023/10/14 01:26:33;;;;;;;5.63;2.75;;;;;;;;;;10356191;28;20050;-70
2023/10/14 01:32:05;;;;;;;7.40;2.72;;;;;;;;;;10355930;28;20503;-71
2023/10/14 01:37:14;;;;;;;4.10;1.85;;;;;;;;;;10356369;28;20394;-72
2023/10/14 01:42:19;;;;;;;5.97;2.40;;;;;;;;;;10356234;28;20401;-73
2023/10/14 01:47:25;;;;;;;5.75;2.38;;;;;;;;;;10356689;28;20510;-73
2023/10/14 01:52:31;;;;;;;7.40;2.15;;;;;;;;;;10354423;28;20411;-74
2023/10/14 01:57:36;;;;;;;4.22;1.90;;;;;;;;;;10352054;28;20145;-72
2023/10/14 02:02:48;;;;;;;4.97;1.90;;;;;;;;;;10357032;28;20046;-72
2023/10/14 02:07:52;;;;;;;4.47;1.58;;;;;;;;;;10360673;28;20050;-73
2023/10/14 02:13:00;;;;;;;9.45;3.20;;;;;;;;;;10360847;28;20053;-74
2023/10/14 02:18:04;;;;;;;5.30;2.33;;;;;;;;;;10361873;28;20068;-73
2023/10/14 02:23:07;;;;;;;7.25;2.30;;;;;;;;;;10358359;28;20045;-72
2023/10/14 02:28:14;;;;;;;3.83;2.20;;;;;;;;;;10362008;28;20125;-72
2023/10/14 02:33:17;;;;;;;8.85;2.80;;;;;;;;;;10362391;28;20300;-71
2023/10/14 02:38:24;;;;;;;5.40;1.98;;;;;;;;;;10358750;28;20043;-71
2023/10/14 02:43:29;;;;;;;7.13;2.17;;;;;;;;;;10360977;28;20044;-72
2023/10/14 02:48:52;;;;;;;4.82;2.17;;;;;;;;;;10363161;28;20069;-71
2023/10/14 02:53:56;;;;;;;7.05;2.63;;;;;;;;;;10372241;28;20045;-71
2023/10/14 02:58:58;;;;;;;;;;;;;;;;;;10360351;28;20038;-71
2023/10/14 03:04:07;;;;;;;5.18;2.20;;;;;;;;;;10357132;28;19921;-71
2023/10/14 03:09:10;;;;;;;6.30;2.35;;;;;;;;;;10360248;28;20077;-74
2023/10/14 03:14:13;;;;;;;3.60;2.05;;;;;;;;;;10355950;28;20050;-71
2023/10/14 03:19:18;;;;;;;7.57;2.10;;;;;;;;;;10358242;28;20506;-71
2023/10/14 03:24:22;;;;;;;3.47;1.42;;;;;;;;;;10363452;28;20054;-70
2023/10/14 03:29:25;;;;;;;7.82;2.13;;;;;;;;;;10360855;28;20046;-72
2023/10/14 03:34:30;;;;;;;2.75;1.30;;;;;;;;;;10361596;28;20058;-70
2023/10/14 03:39:40;;;;;;;7.28;2.47;;;;;;;;;;10362320;28;20050;-72
2023/10/14 03:44:44;;;;;;;5.40;2.03;;;;;;;;;;10354997;28;20079;-72
2023/10/14 03:49:55;;;;;;;;;;;;;;;;;;10359762;28;20057;-72
2023/10/14 03:54:59;;;;;;;4.20;1.88;;;;;;;;;;10361941;28;19965;-71
2023/10/14 04:00:12;;;;;;;5.65;2.28;;;;;;;;;;10361775;28;20041;-71
2023/10/14 04:05:18;;;;;;;6.63;2.60;;;;;;;;;;10357434;28;20034;-71
2023/10/14 04:10:24;;;;;;;5.40;2.20;;;;;;;;;;10366423;28;20105;-72
2023/10/14 04:15:34;;;;;;;5.75;2.53;;;;;;;;;;10357621;28;20120;-72
2023/10/14 04:20:38;;;;;;;4.78;2.10;;;;;;;;;;10358211;28;20104;-72
2023/10/14 04:25:43;;;;;;;5.50;2.08;;;;;;;;;;10360164;28;20093;-72
2023/10/14 04:30:46;;;;;;;5.10;2.40;;;;;;;;;;10360835;28;20124;-70
2023/10/14 04:36:20;;;;;;;4.70;1.70;;;;;;;;;;10359605;28;20038;-71
2023/10/14 04:41:26;;;;;;;9.10;2.85;;;;;;;;;;10356190;28;20080;-70
2023/10/14 04:46:45;;;;;;;6.00;2.70;;;;;;;;;;10360156;28;20104;-71
2023/10/14 04:57:21;;;;;;;4.00;2.00;;;;;;;;;;10354222;28;20052;-71
2023/10/14 05:02:30;;;;;;;7.85;2.75;;;;;;;;;;10351958;28;20058;-72
2023/10/14 05:07:35;;;;;;;5.15;2.90;;;;;;;;;;10358238;28;20495;-70
2023/10/14 05:12:43;;;;;;;7.28;3.10;;;;;;;;;;10350676;28;20042;-72
2023/10/14 05:17:46;;;;;;;7.00;3.25;;;;;;;;;;10358826;28;20046;-70
2023/10/14 05:22:52;;;;;;;7.68;3.15;;;;;;;;;;10357426;28;20042;-69
2023/10/14 05:28:06;;;;;;;11.48;3.10;;;;;;;;;;10358481;28;20041;-72
2023/10/14 05:33:13;;;;;;;7.45;3.10;;;;;;;;;;10360436;28;20186;-71
2023/10/14 05:38:17;;;;;;;6.03;3.10;;;;;;;;;;10356755;28;20101;-70
2023/10/14 05:43:21;;;;;;;10.63;4.00;;;;;;;;;;10360761;28;20117;-71
2023/10/14 05:48:30;;;;;;;6.22;3.58;;;;;;;;;;10355073;28;20484;-70
2023/10/14 05:53:34;;;;;;;6.15;3.20;;;;;;;;;;10350458;28;20045;-70
2023/10/14 05:58:39;;;;;;;5.82;2.90;;;;;;;;;;10369174;28;20034;-70
2023/10/14 06:03:43;;;;;;;5.50;2.25;;;;;;;;;;10351063;28;20053;-70
2023/10/14 06:08:47;;;;;;;8.88;4.05;;;;;;;;;;10355316;28;20121;-70
2023/10/14 06:13:51;;;;;;;17.52;4.55;;;;;;;;;;10355880;28;20486;-71
2023/10/14 06:18:53;;;;;;;8.48;3.60;;;;;;;;;;10350831;28;20046;-70
2023/10/14 06:24:00;;;;;;;10.87;3.47;;;;;;;;;;10355564;28;20591;-70
2023/10/14 06:29:05;;;;;;;6.65;3.25;;;;;;;;;;10354258;28;20100;-70
2023/10/14 06:34:09;;;;;;;7.85;3.58;;;;;;;;;;10352399;28;20515;-69
2023/10/14 06:39:14;;;;;;;6.97;3.70;;;;;;;;;;10351866;28;20602;-71
2023/10/14 06:44:20;;;;;;;9.18;3.50;;;;;;;;;;10351296;28;20053;-70
2023/10/14 06:49:22;;;;;;;9.70;3.83;;;;;;;;;;10355022;28;20130;-69
2023/10/14 06:54:26;;;;;;;;;;;;;;;;;;10350919;28;20045;-70
2023/10/14 06:59:30;;;;;;;7.28;3.90;;;;;;;;;;10362210;28;20039;-70
2023/10/14 07:04:37;;;;;;;8.20;3.05;;;;;;;;;;10351963;28;20057;-70
2023/10/14 07:09:44;;;;;;;6.75;3.10;;;;;;;;;;10353932;28;20049;-73
2023/10/14 07:14:49;;;;;;;8.00;3.38;;;;;;;;;;10355040;28;20056;-71
2023/10/14 07:19:51;;;;;;;11.77;3.45;;;;;;;;;;10357336;28;20034;-70
2023/10/14 07:24:54;;;;;;;8.17;3.13;;;;;;;;;;10359334;28;20049;-71
2023/10/14 07:29:58;;;;;;;6.10;2.78;;;;;;;;;;10359827;28;20057;-72
2023/10/14 07:35:02;;;;;;;8.98;2.70;;;;;;;;;;10359590;28;20515;-70
2023/10/14 07:40:11;;;;;;;6.13;2.20;;;;;;;;;;10339890;28;20045;-69
2023/10/14 07:45:15;;;;;;;10.48;3.17;;;;;;;;;;10354626;28;20056;-72
2023/10/14 07:50:18;;;;;;;7.32;2.83;;;;;;;;;;10354225;28;20037;-71
2023/10/14 07:55:22;;;;;;;7.13;3.35;;;;;;;;;;10355053;28;20149;-71
2023/10/14 08:00:37;;;;;;;7.97;3.22;;;;;;;;;;10354989;28;20034;-70
2023/10/14 08:05:40;;;;;;;6.68;3.08;;;;;;;;;;10351632;28;20064;-70
2023/10/14 08:10:45;;;;;;;5.97;3.47;;;;;;;;;;10355238;28;20376;-70
2023/10/14 08:15:50;;;;;;;6.70;2.65;;;;;;;;;;10352755;28;20065;-73
2023/10/14 08:20:54;;;;;;;6.65;3.15;;;;;;;;;;10354478;28;20037;-71
2023/10/14 08:25:57;;;;;;;;;;;;;;;;;;10353893;28;20056;-71
2023/10/14 08:31:04;;;;;;;8.23;2.90;;;;;;;;;;10369961;28;20016;-71
2023/10/14 08:36:07;;;;;;;9.18;3.10;;;;;;;;;;10358084;28;20217;-73
2023/10/14 08:41:14;;;;;;;4.43;2.70;;;;;;;;;;10358991;28;20112;-72
2023/10/14 08:46:18;;;;;;;10.32;3.00;;;;;;;;;;10360285;28;20049;-71
2023/10/14 08:51:22;;;;;;;10.35;3.55;;;;;;;;;;10361232;28;20058;-72
2023/10/14 08:56:25;;;;;;;5.50;2.90;;;;;;;;;;10356251;28;20154;-71
2023/10/14 09:01:31;;;;;;;8.00;2.90;;;;;;;;;;10348150;28;20038;-73
2023/10/14 09:06:34;;;;;;;9.02;3.40;;;;;;;;;;10359921;28;20058;-72
2023/10/14 09:11:37;;;;;;;9.23;4.05;;;;;;;;;;10357154;28;20053;-71
2023/10/14 09:16:42;;;;;;;8.90;3.23;;;;;;;;;;10353766;28;20122;-72
2023/10/14 09:21:45;;;;;;;7.88;3.83;;;;;;;;;;10360756;28;20319;-72
2023/10/14 09:26:50;;;;;;;7.65;2.80;;;;;;;;;;10359658;28;20052;-71
2023/10/14 09:31:54;;;;;;;11.73;3.47;;;;;;;;;;10361310;28;20050;-72
2023/10/14 09:36:58;;;;;;;6.45;2.92;;;;;;;;;;10352679;28;20104;-71
2023/10/14 09:42:02;;;;;;;8.73;3.65;;;;;;;;;;10346268;28;20696;-71
2023/10/14 09:47:09;;;;;;;12.70;3.95;;;;;;;;;;10356148;28;20105;-72
2023/10/14 09:52:15;;;;;;;7.95;3.35;;;;;;;;;;10358676;28;20049;-73
2023/10/14 09:57:19;;;;;;;10.40;3.78;;;;;;;;;;10349783;28;20118;-74
2023/10/14 10:02:23;;;;;;;10.82;3.58;;;;;;;;;;10358792;28;20081;-73
2023/10/14 10:07:40;;;;;;;10.38;3.38;;;;;;;;;;10350440;28;20042;-73
2023/10/14 10:12:45;;;;;;;6.65;3.03;;;;;;;;;;10354085;28;20410;-71
2023/10/14 10:17:56;;;;;;;6.68;2.75;;;;;;;;;;10359038;28;20587;-72
2023/10/14 10:22:58;;;;;;;7.65;3.53;;;;;;;;;;10355517;28;20081;-72
2023/10/14 10:28:23;;;;;;;6.75;3.15;;;;;;;;;;10364014;28;20046;-72
2023/10/14 10:33:45;;;;;;;5.75;2.80;;;;;;;;;;10364609;28;20038;-70
2023/10/14 10:38:48;;;;;;;6.82;2.70;;;;;;;;;;10361734;28;20126;-70
2023/10/14 10:43:50;;;;;;;6.22;2.72;;;;;;;;;;10361223;28;20045;-70
2023/10/14 10:48:54;;;;;;;6.60;3.22;;;;;;;;;;10358964;28;20030;-70
2023/10/14 10:53:59;;;;;;;7.30;2.78;;;;;;;;;;10351628;28;20042;-71
2023/10/14 10:59:04;;;;;;;7.38;3.60;;;;;;;;;;10360264;28;20045;-70
2023/10/14 11:04:09;;;;;;;7.97;3.13;;;;;;;;;;10359536;28;20471;-71
2023/10/14 11:09:13;;;;;;;10.95;3.53;;;;;;;;;;10363482;28;20052;-70
2023/10/14 11:14:17;;;;;;;8.32;3.25;;;;;;;;;;10364214;28;20053;-71
2023/10/14 11:19:21;;;;;;;5.10;2.40;;;;;;;;;;10364078;28;20053;-72
2023/10/14 11:24:25;;;;;;;7.95;3.50;;;;;;;;;;10359350;28;20046;-70
2023/10/14 11:29:28;;;;;;;5.20;2.53;;;;;;;;;;10357398;28;20060;-70
2023/10/14 11:34:35;;;;;;;5.05;3.10;;;;;;;;;;10353514;28;20410;-70
2023/10/14 11:39:38;;;;;;;5.60;2.60;;;;;;;;;;10353144;28;20045;-72
2023/10/14 11:44:41;;;;;;;8.55;2.70;;;;;;;;;;10352303;28;20141;-72
2023/10/14 11:49:47;;;;;;;5.78;2.58;;;;;;;;;;10359029;28;20117;-71
2023/10/14 11:54:52;;;;;;;3.67;2.08;;;;;;;;;;10359746;28;20026;-70
2023/10/14 11:59:55;;;;;;;3.13;1.83;;;;;;;;;;10357231;28;20114;-70
2023/10/14 12:05:03;;;;;;;6.30;2.70;;;;;;;;;;10348526;28;20070;-73
2023/10/14 12:10:17;;;;;;;5.47;2.40;;;;;;;;;;10351348;28;20050;-71
2023/10/14 12:15:21;;;;;;;5.82;2.38;;;;;;;;;;10357948;28;20054;-71
2023/10/14 12:20:25;;;;;;;5.50;2.65;;;;;;;;;;10359683;28;20037;-73
2023/10/14 12:25:28;;;;;;;5.57;2.60;;;;;;;;;;10361995;28;20045;-71
2023/10/14 12:30:39;;;;;;;5.47;1.98;;;;;;;;;;10354979;28;20510;-71
2023/10/14 12:35:44;;;;;;;4.30;1.80;;;;;;;;;;10371422;28;20527;-71
2023/10/14 12:40:48;;;;;;;6.43;2.15;;;;;;;;;;10355256;28;20125;-72
2023/10/14 12:45:53;;;;;;;5.97;2.33;;;;;;;;;;10371010;28;20046;-73
2023/10/14 12:51:02;;;;;;;5.45;2.40;;;;;;;;;;10362205;28;20112;-72
2023/10/14 12:56:07;;;;;;;2.50;1.90;;;;;;;;;;10361276;28;20038;-72
2023/10/14 13:01:16;;;;;;;6.15;2.75;;;;;;;;;;10361908;28;20045;-71
2023/10/14 13:06:24;;;;;;;4.95;2.35;;;;;;;;;;10372141;28;20677;-72
2023/10/14 13:11:28;;;;;;;7.28;2.47;;;;;;;;;;10361588;28;20069;-72
2023/10/14 13:16:32;;;;;;;6.38;2.78;;;;;;;;;;10363165;28;20052;-72
2023/10/14 13:21:41;;;;;;;7.50;2.30;;;;;;;;;;10360382;28;20088;-72
2023/10/14 13:26:45;;;;;;;5.03;2.10;;;;;;;;;;10363493;28;20060;-71
2023/10/14 13:31:49;;;;;;;6.38;2.50;;;;;;;;;;10363247;28;20107;-73
2023/10/14 13:36:57;;;;;;;8.02;2.55;;;;;;;;;;10361029;28;20063;-73
2023/10/14 13:42:00;;;;;;;3.67;1.90;;;;;;;;;;10356777;28;20042;-72
2023/10/14 13:47:04;;;;;;;3.25;1.40;;;;;;;;;;10355442;28;20069;-71
2023/10/14 13:52:10;;;;;;;5.43;2.10;;;;;;;;;;10359011;28;20073;-72
2023/10/14 13:57:17;;;;;;;5.22;2.17;;;;;;;;;;10345423;28;20042;-71
2023/10/14 14:02:20;;;;;;;3.05;1.63;;;;;;;;;;10359159;28;20423;-70
2023/10/14 14:07:25;;;;;;;5.38;1.73;;;;;;;;;;10365476;28;20145;-71
2023/10/14 14:12:28;;;;;;;0.95;0.75;;;;;;;;;;10359845;28;20125;-73
2023/10/14 14:17:33;;;;;;;3.03;1.50;;;;;;;;;;10359869;28;20843;-72
2023/10/14 14:22:38;;;;;;;2.70;1.38;;;;;;;;;;10362479;28;20124;-70
2023/10/14 14:27:44;;;;;;;3.20;1.20;;;;;;;;;;10369165;28;20133;-70
2023/10/14 14:32:47;;;;;;;1.75;0.77;;;;;;;;;;10369637;28;20121;-73
2023/10/14 14:37:51;;;;;;;2.43;0.70;;;;;;;;;;10369832;28;20046;-72
2023/10/14 14:42:54;;;;;;;2.55;0.60;;;;;;;;;;10366893;28;20045;-73
2023/10/14 14:47:58;;;;;;;1.92;0.55;;;;;;;;;;10361932;28;20046;-71
2023/10/14 14:53:06;;;;;;;0.70;0.60;;;;;;;;;;10374785;28;20049;-71
2023/10/14 14:58:09;;;;;;;3.15;0.50;;;;;;;;;;10364767;28;20089;-72
2023/10/14 15:03:12;;;;;;;1.65;0.70;;;;;;;;;;10364178;28;20045;-73
2023/10/14 15:08:18;;;;;;;1.45;0.85;;;;;;;;;;10361962;28;20132;-72
2023/10/14 15:13:21;;;;;;;2.25;0.55;;;;;;;;;;10353402;28;20038;-71
2023/10/14 15:18:23;;;;;;;1.10;0.60;;;;;;;;;;10360939;28;20048;-73
2023/10/14 15:23:28;;;;;;;3.13;0.88;;;;;;;;;;10349884;28;20513;-71
2023/10/14 15:28:31;;;;;;;2.47;0.57;;;;;;;;;;10333722;28;20056;-71
2023/10/14 15:33:34;;;;;;;0.37;0.30;;;;;;;;;;10328227;28;20134;-72
2023/10/14 15:38:38;;;;;;;1.87;0.70;;;;;;;;;;10327102;28;20099;-72
2023/10/14 15:43:40;;;;;;;4.75;1.00;;;;;;;;;;10329314;28;20462;-72
2023/10/14 15:48:44;;;;;;;1.67;0.97;;;;;;;;;;10331657;28;20141;-72
2023/10/14 15:53:52;;;;;;;1.58;0.68;;;;;;;;;;10332811;28;20176;-72
2023/10/14 15:58:55;;;;;;;1.63;0.70;;;;;;;;;;10333277;28;20045;-72
2023/10/14 16:03:57;;;;;;;1.25;0.80;;;;;;;;;;10332723;28;20107;-72
2023/10/14 16:09:02;;;;;;;2.90;1.00;;;;;;;;;;10330064;28;20038;-73
2023/10/14 16:14:04;;;;;;;1.88;1.00;;;;;;;;;;10336643;28;20058;-76
2023/10/14 16:19:07;;;;;;;1.52;1.00;;;;;;;;;;10330931;28;20053;-73
2023/10/14 16:24:13;;;;;;;2.25;0.98;;;;;;;;;;10328767;28;20046;-72
2023/10/14 16:29:16;;;;;;;2.03;0.90;;;;;;;;;;10331367;28;20038;-71
2023/10/14 16:34:22;;;;;;;2.47;0.90;;;;;;;;;;10331848;28;20046;-73
2023/10/14 16:39:27;;;;;;;3.90;0.98;;;;;;;;;;10331882;28;20383;-73
2023/10/14 16:44:30;;;;;;;2.92;1.00;;;;;;;;;;10333540;28;20136;-76
2023/10/14 16:49:34;;;;;;;1.70;1.10;;;;;;;;;;10330973;28;20148;-71
2023/10/14 16:54:38;;;;;;;2.10;0.85;;;;;;;;;;10330817;28;20802;-72
2023/10/14 16:59:41;;;;;;;;;;;;;;;;;;10329713;28;20366;-71
2023/10/14 17:04:44;;;;;;;1.52;0.98;;;;;;;;;;10330885;28;19933;-72
2023/10/14 17:09:48;;;;;;;3.17;1.10;;;;;;;;;;10329430;28;20197;-72
2023/10/14 17:14:53;;;;;;;2.10;1.08;;;;;;;;;;10336081;28;20120;-72
2023/10/14 17:19:57;;;;;;;2.83;1.20;;;;;;;;;;10330634;28;20137;-72
2023/10/14 17:25:02;;;;;;;2.83;1.25;;;;;;;;;;10332679;28;20050;-72
2023/10/14 17:30:06;;;;;;;3.25;1.30;;;;;;;;;;10327225;28;20054;-71
2023/10/14 17:35:12;;;;;;;2.72;1.73;;;;;;;;;;10330683;28;20041;-71
2023/10/14 17:40:17;;;;;;;2.15;1.10;;;;;;;;;;10328297;28;20042;-71
2023/10/14 17:45:22;;;;;;;1.45;1.00;;;;;;;;;;10328427;28;20205;-72
2023/10/14 17:50:26;;;;;;;1.98;0.98;;;;;;;;;;10347296;28;20403;-71
2023/10/14 17:55:31;;;;;;;1.98;1.00;;;;;;;;;;10340714;28;20040;-71
2023/10/14 18:00:35;;;;;;;1.45;1.15;;;;;;;;;;10326631;28;20045;-71
2023/10/14 18:05:38;;;;;;;1.53;0.87;;;;;;;;;;10327804;28;20089;-71
2023/10/14 18:10:43;;;;;;;1.52;1.30;;;;;;;;;;10335172;28;20073;-71
2023/10/14 18:15:46;;;;;;;2.85;1.30;;;;;;;;;;10328650;28;20041;-71
2023/10/14 18:20:49;;;;;;;1.50;1.00;;;;;;;;;;10327521;28;20054;-72
2023/10/14 18:25:55;;;;;;;4.05;1.48;;;;;;;;;;10327775;28;20046;-71
2023/10/14 18:30:58;;;;;;;2.65;1.30;;;;;;;;;;10329408;28;20176;-71
2023/10/14 18:36:06;;;;;;;3.50;1.60;;;;;;;;;;10327164;28;20105;-72
2023/10/14 18:41:16;;;;;;;2.30;1.52;;;;;;;;;;10330087;28;20056;-71
2023/10/14 18:46:19;;;;;;;4.70;1.70;;;;;;;;;;10328806;28;20053;-71
2023/10/14 18:51:22;;;;;;;3.33;1.65;;;;;;;;;;10335222;28;20676;-72
2023/10/14 18:56:28;;;;;;;2.63;1.70;;;;;;;;;;10334607;28;20133;-74
2023/10/14 19:01:30;;;;;;;2.97;1.67;;;;;;;;;;10338084;28;20107;-71
2023/10/14 19:06:38;;;;;;;4.05;1.77;;;;;;;;;;10337127;28;20081;-72
2023/10/14 19:11:42;;;;;;;6.57;2.20;;;;;;;;;;10339858;28;20483;-70
2023/10/14 19:16:45;;;;;;;5.13;2.08;;;;;;;;;;10336798;28;20163;-71
2023/10/14 19:21:48;;;;;;;4.10;2.00;;;;;;;;;;10333637;28;20180;-71
2023/10/14 19:26:52;;;;;;;7.40;2.43;;;;;;;;;;10338207;28;20038;-71
2023/10/14 19:31:55;;;;;;;5.07;2.10;;;;;;;;;;10334173;28;20301;-71
2023/10/14 19:37:01;;;;;;;4.63;2.40;;;;;;;;;;10333221;28;20077;-71
2023/10/14 19:42:05;;;;;;;7.60;2.40;;;;;;;;;;10333984;28;20116;-72
2023/10/14 19:47:08;;;;;;;4.28;1.77;;;;;;;;;;10335710;28;20056;-72
2023/10/14 19:52:11;;;;;;;5.97;2.30;;;;;;;;;;10332012;28;20046;-72
2023/10/14 19:57:16;;;;;;;7.90;2.37;;;;;;;;;;10332213;28;20129;-72
2023/10/14 20:02:21;;;;;;;4.93;1.73;;;;;;;;;;10331095;28;20060;-70
2023/10/14 20:07:25;;;;;;;9.55;2.15;;;;;;;;;;10334434;28;20046;-72
2023/10/14 20:12:30;;;;;;;5.28;2.40;;;;;;;;;;10333588;28;20192;-71
2023/10/14 20:17:33;;;;;;;5.85;1.90;;;;;;;;;;10341874;28;20049;-72
2023/10/14 20:22:39;;;;;;;6.47;2.05;;;;;;;;;;10333016;28;20042;-71
2023/10/14 20:27:43;;;;;;;2.70;1.40;;;;;;;;;;10344854;28;20533;-72
2023/10/14 20:32:48;;;;;;;;;;;;;;;;;;10330550;28;20070;-72
2023/10/14 20:37:51;;;;;;;5.72;2.08;;;;;;;;;;10333190;28;19936;-71
2023/10/14 20:42:57;;;;;;;5.18;2.03;;;;;;;;;;10330406;28;20149;-76
2023/10/14 20:48:01;;;;;;;4.28;1.88;;;;;;;;;;10334983;28;20123;-72
2023/10/14 20:53:05;;;;;;;8.52;2.28;;;;;;;;;;10330063;28;20045;-71
2023/10/14 20:58:09;;;;;;;3.78;1.85;;;;;;;;;;10329907;28;20042;-71
2023/10/14 21:03:19;;;;;;;2.95;1.73;;;;;;;;;;10331345;28;20038;-71
2023/10/14 21:08:25;;;;;;;5.03;1.90;;;;;;;;;;10331148;28;20049;-73
2023/10/14 21:13:29;;;;;;;6.78;1.90;;;;;;;;;;10338697;28;20050;-72
2023/10/14 21:18:34;;;;;;;6.43;2.08;;;;;;;;;;10331361;28;20060;-72
2023/10/14 21:23:37;;;;;;;;;;;;;;;;;;10329809;28;20619;-73
2023/10/14 21:28:42;;;;;;;6.70;1.90;;;;;;;;;;10330985;28;20068;-72
2023/10/14 21:33:44;;;;;;;9.52;2.42;;;;;;;;;;10330399;28;20084;-71
2023/10/14 21:38:47;;;;;;;5.43;1.52;;;;;;;;;;10329535;28;20088;-72
2023/10/14 21:43:51;;;;;;;6.25;2.08;;;;;;;;;;10330923;28;20622;-71
2023/10/14 21:48:54;;;;;;;4.68;1.45;;;;;;;;;;10329005;28;20053;-71
2023/10/14 21:53:57;;;;;;;6.43;1.80;;;;;;;;;;10346685;28;20042;-71
2023/10/14 21:59:04;;;;;;;5.93;1.70;;;;;;;;;;10330648;28;20058;-72
2023/10/14 22:04:07;;;;;;;9.93;2.08;;;;;;;;;;10327051;28;20563;-71
2023/10/14 22:09:10;;;;;;;3.60;1.77;;;;;;;;;;10325688;28;20718;-71
2023/10/14 22:14:15;;;;;;;8.37;2.10;;;;;;;;;;10332945;28;20053;-75
2023/10/14 22:19:17;;;;;;;;;;;;;;;;;;10329577;28;20058;-72
2023/10/14 22:24:20;;;;;;;7.20;2.08;;;;;;;;;;10332096;28;19969;-72
2023/10/14 22:29:24;;;;;;;6.50;1.83;;;;;;;;;;10335502;28;20053;-72
2023/10/14 22:34:26;;;;;;;4.82;1.60;;;;;;;;;;10336196;28;20070;-70
2023/10/14 22:39:30;;;;;;;5.57;2.05;;;;;;;;;;10335291;28;20081;-72
2023/10/14 22:44:37;;;;;;;3.67;1.90;;;;;;;;;;10339955;28;20030;-71
2023/10/14 22:49:39;;;;;;;7.80;1.80;;;;;;;;;;10336734;28;20133;-71
2023/10/14 22:54:42;;;;;;;6.18;1.63;;;;;;;;;;10336224;28;20049;-71
2023/10/14 22:59:47;;;;;;;8.75;2.00;;;;;;;;;;10350263;28;20045;-73
2023/10/14 23:04:51;;;;;;;2.03;1.20;;;;;;;;;;10335052;28;20068;-72
2023/10/14 23:09:54;;;;;;;4.68;1.48;;;;;;;;;;10334319;28;20053;-72
2023/10/14 23:14:57;;;;;;;4.45;1.92;;;;;;;;;;10342264;28;20041;-71
2023/10/14 23:20:00;;;;;;;;;;;;;;;;;;10340356;28;20042;-70
2023/10/14 23:25:03;;;;;;;6.82;2.10;;;;;;;;;;10334601;28;19940;-71
2023/10/14 23:30:12;;;;;;;4.93;1.77;;;;;;;;;;10338780;28;20056;-70
2023/10/14 23:35:20;;;;;;;7.07;2.42;;;;;;;;;;10330669;28;20392;-72
2023/10/14 23:40:23;;;;;;;5.07;2.03;;;;;;;;;;10330548;28;20049;-71
2023/10/14 23:45:28;;;;;;;6.47;1.80;;;;;;;;;;10332834;28;20676;-71
2023/10/14 23:50:35;;;;;;;4.28;1.70;;;;;;;;;;10333290;28;20309;-72
2023/10/14 23:55:43;;;;;;;8.68;2.42;;;;;;;;;;10329083;28;20403;-72
